Impacts TAF Board
For situational awareness. Not to be used for flight planning purposes.
IDs:

KMGW - Morgantown Muni, WV, US

Issued at 0703 UTC 07 Dec 2022
Updated at 0723 UTC 07 Dec 2022
Potential Impact None Slight Moderate High
Time<<07/20Z 07/21Z 07/22Z 07/23Z 08/00Z 08/01Z 08/02Z 08/03Z 08/04Z 08/05Z 08/06Z 08/07Z 08/08Z>>
Type PRVL PRVL PRVL PRVL PRVL PRVL PRVL PRVL PRVL PRVL
VIS 5 5 5 >6 >6 >6 >6 >6 >6 >6
CIG 6 6 6 9 9 9 9 9 9 9
Cover OVC OVC OVC OVC OVC OVC OVC OVC OVC OVC
FltCat IFR IFR IFR IFR IFR IFR IFR IFR IFR IFR
WX BR BR BR -- -- -- -- -- -- --
WDir 220 220 220 330 330 330 330 330 330 330
WSpd 5 5 5 5 5 5 5 5 5 5
WGst -- -- -- -- -- -- -- -- -- --
WSHgt -- -- -- -- -- -- -- -- -- --
WSDir -- -- -- -- -- -- -- -- -- --
WSSpd -- -- -- -- -- -- -- -- -- --
Raw TAF
KMGW 070703Z 0706/0806 19005KT 4SM -RA BR OVC020
  FM070800 19005KT 5SM -RA BR OVC009
  FM071300 20005KT 3SM -DZ BR OVC006
  FM071600 22005KT 5SM BR OVC006
  FM072300 33005KT P6SM OVC009


METAR Board
Radar Display
Forecast Discussion
For situational awareness. Not to be used for flight planning purposes.